createdAt,value
2018-08-06T00:01:01.652Z,80.00
2018-08-06T00:03:29.932Z,79.50
2018-08-06T00:05:58.232Z,79.80
2018-08-06T00:08:26.529Z,80.10
2018-08-06T00:10:54.828Z,81.00
2018-08-06T00:13:23.172Z,80.90
2018-08-06T00:15:51.456Z,81.20
2018-08-06T00:18:19.735Z,80.80
2018-08-06T00:20:48.021Z,80.60
2018-08-06T00:23:16.316Z,81.60
2018-08-06T00:25:44.594Z,81.20
2018-08-06T00:28:12.874Z,82.20
2018-08-06T00:30:41.217Z,82.50
2018-08-06T00:33:09.488Z,82.90
2018-08-06T00:35:37.797Z,82.60
2018-08-06T00:38:06.137Z,82.20
2018-08-06T00:40:34.411Z,82.30
2018-08-06T00:43:02.732Z,82.50
2018-08-06T00:45:31.094Z,83.70
2018-08-06T00:47:59.384Z,83.60
2018-08-06T00:50:27.688Z,84.30
2018-08-06T00:55:24.017Z,83.80
2018-08-06T00:57:52.315Z,83.30
2018-08-06T01:02:49.016Z,83.50
2018-08-06T01:05:17.668Z,83.70
2018-08-06T01:07:46.217Z,84.30
2018-08-06T01:10:16.724Z,85.30
2018-08-06T01:12:45.127Z,85.60
2018-08-06T01:15:14.996Z,85.70
2018-08-06T01:17:43.361Z,86.00
2018-08-06T01:20:12.637Z,86.50
2018-08-06T01:22:41.733Z,86.70
2018-08-06T01:25:10.015Z,86.70
2018-08-06T01:30:07.865Z,86.30
2018-08-06T01:32:36.539Z,85.70
2018-08-06T01:35:05.293Z,86.10
2018-08-06T01:37:33.692Z,86.40
2018-08-06T01:40:01.981Z,86.90
2018-08-06T01:42:30.269Z,87.60
2018-08-06T01:44:58.593Z,87.20
2018-08-06T01:47:26.880Z,87.40
2018-08-06T01:49:55.152Z,87.90
2018-08-06T01:52:23.450Z,88.00
2018-08-06T01:54:51.897Z,87.90
2018-08-06T01:57:20.186Z,87.80
2018-08-06T01:59:48.497Z,87.70
2018-08-06T02:02:16.815Z,87.90
2018-08-06T02:07:13.115Z,88.40
2018-08-06T02:09:41.382Z,89.20
2018-08-06T02:12:09.678Z,89.40
2018-08-06T02:14:38.006Z,89.50
2018-08-06T02:17:06.335Z,89.60
2018-08-06T02:19:34.644Z,89.70
2018-08-06T02:24:31.041Z,89.80
2018-08-06T02:26:59.357Z,89.60
2018-08-06T02:29:27.695Z,89.40
2018-08-06T02:31:56.018Z,89.40
2018-08-06T02:34:24.362Z,89.60
2018-08-06T02:36:52.657Z,89.80
2018-08-06T02:39:21.248Z,90.10
2018-08-06T02:41:49.533Z,90.10
2018-08-06T02:44:17.870Z,90.20
2018-08-06T02:46:46.148Z,90.20
2018-08-06T02:49:14.561Z,90.00
2018-08-06T02:51:42.968Z,90.00
2018-08-06T02:54:11.244Z,89.70
2018-08-06T02:56:39.552Z,89.30
2018-08-06T02:59:07.844Z,89.90
2018-08-06T03:01:36.128Z,89.10
2018-08-06T03:04:04.485Z,89.30
2018-08-06T03:06:32.752Z,89.40
2018-08-06T03:09:01.054Z,90.00
2018-08-06T03:11:29.348Z,90.00
2018-08-06T03:13:57.670Z,90.10
2018-08-06T03:16:25.980Z,90.00
2018-08-06T03:18:54.274Z,90.10
2018-08-06T03:23:50.584Z,90.20
2018-08-06T03:26:18.905Z,90.50
2018-08-06T03:28:47.189Z,90.70
2018-08-06T03:31:15.557Z,90.40
2018-08-06T03:33:43.866Z,90.50
2018-08-06T03:36:12.176Z,90.30
2018-08-06T03:38:40.500Z,90.30
2018-08-06T03:41:09.017Z,90.40
2018-08-06T03:43:37.301Z,90.70
2018-08-06T03:46:05.638Z,90.70
2018-08-06T03:48:33.952Z,90.70
2018-08-06T03:51:02.532Z,91.00
2018-08-06T03:53:30.816Z,91.00
2018-08-06T03:55:59.124Z,91.10
2018-08-06T03:58:27.444Z,91.10
2018-08-06T04:00:55.712Z,91.10
2018-08-06T04:05:52.071Z,91.10
2018-08-06T04:10:48.380Z,90.70
2018-08-06T04:13:16.664Z,90.90
2018-08-06T04:15:44.986Z,91.00
2018-08-06T04:18:13.281Z,90.90
2018-08-06T04:20:41.572Z,91.10
2018-08-06T04:23:09.865Z,90.90
2018-08-06T04:25:38.172Z,91.00
2018-08-06T04:28:06.485Z,90.90
2018-08-06T04:30:34.792Z,90.80
2018-08-06T04:33:03.390Z,90.80
2018-08-06T04:35:31.653Z,90.70
2018-08-06T04:37:59.926Z,90.80
2018-08-06T04:40:28.241Z,91.00
2018-08-06T04:42:56.537Z,90.90
2018-08-06T04:45:24.865Z,90.90
2018-08-06T04:47:53.136Z,91.00
2018-08-06T04:50:21.421Z,90.60
2018-08-06T04:52:49.771Z,90.60
2018-08-06T04:55:18.100Z,90.50
2018-08-06T05:00:15.381Z,90.50
2018-08-06T05:02:44.074Z,90.70
2018-08-06T05:05:12.520Z,90.30
2018-08-06T05:07:40.824Z,90.30
2018-08-06T05:10:09.140Z,90.30
2018-08-06T05:12:37.453Z,90.30
2018-08-06T05:15:06.160Z,90.40
2018-08-06T05:17:34.448Z,90.10
2018-08-06T05:22:30.761Z,90.20
2018-08-06T05:24:59.053Z,89.40
2018-08-06T05:29:55.367Z,89.10
2018-08-06T05:32:23.701Z,88.70
2018-08-06T05:34:52.004Z,88.40
2018-08-06T05:37:20.396Z,87.80
2018-08-06T05:39:48.949Z,87.50
2018-08-06T05:42:17.296Z,87.60
2018-08-06T05:44:45.613Z,86.50
2018-08-06T05:47:13.987Z,86.70
2018-08-06T05:49:42.305Z,86.50
2018-08-06T05:52:10.650Z,85.40
2018-08-06T05:54:39.041Z,84.90
2018-08-06T05:57:07.353Z,84.60
2018-08-06T05:59:35.648Z,85.20
2018-08-06T06:02:04.025Z,84.60
2018-08-06T06:04:32.293Z,84.60
2018-08-06T06:09:28.649Z,83.90
2018-08-06T06:11:56.993Z,83.80
2018-08-06T06:14:25.288Z,83.90
2018-08-06T06:16:53.580Z,83.80
2018-08-06T06:19:21.868Z,84.00
2018-08-06T06:21:50.165Z,83.70
2018-08-06T06:24:18.456Z,83.60
2018-08-06T06:26:46.752Z,83.50
2018-08-06T06:29:15.086Z,83.60
2018-08-06T06:31:43.367Z,83.20
2018-08-06T06:34:11.647Z,82.00
2018-08-06T06:36:39.961Z,81.00
2018-08-06T06:39:10.848Z,80.40
2018-08-06T06:41:39.539Z,79.90
2018-08-06T06:44:08.271Z,79.50
2018-08-06T06:46:36.691Z,79.60
2018-08-06T06:49:05.107Z,79.80
2018-08-06T06:51:33.381Z,79.90
2018-08-06T06:54:01.716Z,79.80
2018-08-06T06:56:30.034Z,81.20
2018-08-06T06:58:58.324Z,81.30
2018-08-06T07:01:26.684Z,82.10
2018-08-06T07:03:54.972Z,82.30
2018-08-06T07:06:23.379Z,82.20
2018-08-06T07:08:51.656Z,80.80
2018-08-06T07:11:19.961Z,81.00
2018-08-06T07:13:48.328Z,80.80
2018-08-06T07:16:16.592Z,80.20
2018-08-06T07:18:44.925Z,79.70
2018-08-06T07:21:13.228Z,80.20
2018-08-06T07:23:41.558Z,79.80
2018-08-06T07:28:37.909Z,80.00
2018-08-06T07:31:06.695Z,79.60
2018-08-06T07:33:35.006Z,79.20
2018-08-06T07:36:03.350Z,79.70
2018-08-06T07:40:59.692Z,79.20
2018-08-06T07:43:27.976Z,80.10
2018-08-06T07:45:56.735Z,79.40
2018-08-06T07:48:25.056Z,79.20
2018-08-06T07:50:53.852Z,80.40
2018-08-06T07:53:22.123Z,79.20
2018-08-06T07:55:50.500Z,79.30
2018-08-06T07:58:18.809Z,78.80
2018-08-06T08:00:47.088Z,79.10
2018-08-06T08:03:15.384Z,78.90
2018-08-06T08:05:43.700Z,79.00
2018-08-06T08:08:12.003Z,78.30
2018-08-06T08:10:40.350Z,78.20
2018-08-06T08:13:08.686Z,77.40
2018-08-06T08:15:37.017Z,77.50
2018-08-06T08:18:05.308Z,76.00
2018-08-06T08:20:33.685Z,75.20
2018-08-06T08:23:02.043Z,74.60
2018-08-06T08:25:30.379Z,74.50
2018-08-06T08:27:58.658Z,73.80
2018-08-06T08:30:26.968Z,74.30
2018-08-06T08:32:55.248Z,73.80
2018-08-06T08:35:29.477Z,73.80
2018-08-06T08:37:57.826Z,72.90
2018-08-06T08:42:54.140Z,73.70
2018-08-06T08:45:22.492Z,73.20
2018-08-06T08:47:50.792Z,73.10
2018-08-06T08:50:20.013Z,72.60
2018-08-06T08:52:48.381Z,71.90
2018-08-06T08:55:17.832Z,70.30
2018-08-06T08:57:46.311Z,70.80
2018-08-06T09:00:16.792Z,71.00
2018-08-06T09:02:46.461Z,68.90
2018-08-06T09:05:15.443Z,70.40
2018-08-06T09:07:43.803Z,69.90
2018-08-06T09:10:13.308Z,69.80
2018-08-06T09:15:14.321Z,68.10
2018-08-06T09:17:42.826Z,67.90
2018-08-06T09:20:11.382Z,68.90
2018-08-06T09:22:40.579Z,67.10
2018-08-06T09:25:09.828Z,67.60
2018-08-06T09:27:39.122Z,67.40
2018-08-06T09:32:36.480Z,66.60
2018-08-06T09:35:04.962Z,66.70
2018-08-06T09:37:33.257Z,67.20
2018-08-06T09:42:29.647Z,66.80
2018-08-06T09:44:57.952Z,66.20
2018-08-06T09:47:26.284Z,65.00
2018-08-06T09:49:54.601Z,63.70
2018-08-06T09:52:22.941Z,64.20
2018-08-06T09:54:51.232Z,63.30
2018-08-06T09:57:19.585Z,60.80
2018-08-06T09:59:47.877Z,62.50
2018-08-06T10:02:16.150Z,62.00
2018-08-06T10:04:44.436Z,61.20
2018-08-06T10:07:12.732Z,59.80
2018-08-06T10:09:41.017Z,61.00
2018-08-06T10:12:09.318Z,60.30
2018-08-06T10:14:37.609Z,61.30
2018-08-06T10:17:05.934Z,60.60
2018-08-06T10:19:34.315Z,60.40
2018-08-06T10:22:02.534Z,59.60
2018-08-06T10:24:31.706Z,59.40
2018-08-06T10:26:59.993Z,59.60
2018-08-06T10:29:28.270Z,58.60
2018-08-06T10:31:56.553Z,58.50
2018-08-06T10:34:24.828Z,58.70
2018-08-06T10:36:53.156Z,58.20
2018-08-06T10:39:21.445Z,58.70
2018-08-06T10:41:49.745Z,57.50
2018-08-06T10:44:18.041Z,57.90
2018-08-06T10:46:46.308Z,57.60
2018-08-06T10:49:14.601Z,57.80
2018-08-06T10:54:10.937Z,56.40
2018-08-06T10:59:07.309Z,56.70
2018-08-06T11:01:35.620Z,56.70
2018-08-06T11:04:04.037Z,56.60
2018-08-06T11:06:32.308Z,56.40
2018-08-06T11:09:00.541Z,56.80
2018-08-06T11:11:28.853Z,56.60
2018-08-06T11:13:57.156Z,55.30
2018-08-06T11:16:25.428Z,55.50
2018-08-06T11:18:53.701Z,55.50
2018-08-06T11:21:22.015Z,55.60
2018-08-06T11:23:50.289Z,55.70
2018-08-06T11:26:18.590Z,54.50
2018-08-06T11:28:46.864Z,54.10
2018-08-06T11:31:15.169Z,54.70
2018-08-06T11:33:43.476Z,54.40
2018-08-06T11:36:11.808Z,54.40
2018-08-06T11:38:40.109Z,55.20
2018-08-06T11:41:08.473Z,54.50
2018-08-06T11:43:36.770Z,54.40
2018-08-06T11:46:05.049Z,53.90
2018-08-06T11:48:33.315Z,52.90
2018-08-06T11:51:01.972Z,52.40
2018-08-06T11:53:30.283Z,53.20
2018-08-06T11:55:58.541Z,52.00
2018-08-06T11:58:26.829Z,53.00
2018-08-06T12:00:55.115Z,52.50
2018-08-06T12:03:23.376Z,52.50
2018-08-06T12:05:51.668Z,51.90
2018-08-06T12:10:47.956Z,52.00
2018-08-06T12:13:16.232Z,51.80
2018-08-06T12:15:44.513Z,51.50
2018-08-06T12:18:12.805Z,52.00
2018-08-06T12:20:41.109Z,51.70
2018-08-06T12:23:09.398Z,52.40
2018-08-06T12:28:05.664Z,49.60
2018-08-06T12:30:33.971Z,49.70
2018-08-06T12:33:02.252Z,49.90
2018-08-06T12:35:30.523Z,50.30
2018-08-06T12:37:58.819Z,50.80
2018-08-06T12:40:27.124Z,50.80
2018-08-06T12:42:55.385Z,50.30
2018-08-06T12:45:23.684Z,50.60
2018-08-06T12:50:20.032Z,50.70
2018-08-06T12:52:48.344Z,50.20
2018-08-06T12:55:17.439Z,50.60
2018-08-06T12:57:46.021Z,51.00
2018-08-06T13:00:21.479Z,50.70
2018-08-06T13:02:50.316Z,50.00
2018-08-06T13:05:19.289Z,49.80
2018-08-06T13:07:47.680Z,49.50
2018-08-06T13:10:16.116Z,50.50
2018-08-06T13:12:44.568Z,49.80
2018-08-06T13:15:13.981Z,50.00
2018-08-06T13:17:42.275Z,50.10
2018-08-06T13:20:10.616Z,49.40
2018-08-06T13:25:08.088Z,49.60
2018-08-06T13:27:36.579Z,49.60
2018-08-06T13:30:08.488Z,49.40
2018-08-06T13:32:36.800Z,49.30
2018-08-06T13:35:05.164Z,49.30
2018-08-06T13:37:33.481Z,48.60
2018-08-06T13:40:01.737Z,49.10
2018-08-06T13:44:58.117Z,48.00
2018-08-06T13:47:26.376Z,47.40
2018-08-06T13:49:54.712Z,47.50
2018-08-06T13:52:23.009Z,47.70
2018-08-06T13:57:19.287Z,47.90
2018-08-06T13:59:47.558Z,46.90
2018-08-06T14:02:15.900Z,46.80
2018-08-06T14:04:44.190Z,47.40
2018-08-06T14:07:12.484Z,47.50
2018-08-06T14:09:40.769Z,47.60
2018-08-06T14:12:09.033Z,47.50
2018-08-06T14:17:05.333Z,47.40
2018-08-06T14:19:33.616Z,46.60
2018-08-06T14:22:01.953Z,46.10
2018-08-06T14:24:30.248Z,46.60
2018-08-06T14:26:58.573Z,45.50
2018-08-06T14:29:26.860Z,45.80
2018-08-06T14:31:55.266Z,46.00
2018-08-06T14:34:23.493Z,44.90
2018-08-06T14:36:51.746Z,45.20
2018-08-06T14:41:20.805Z,45.40
2018-08-06T14:43:49.143Z,45.10
2018-08-06T14:46:17.525Z,45.50
2018-08-06T14:48:45.916Z,45.00
2018-08-06T14:51:14.208Z,45.00
2018-08-06T14:53:42.620Z,44.80
2018-08-06T14:56:10.898Z,45.00
2018-08-06T14:58:39.231Z,45.40
2018-08-06T15:01:07.692Z,45.40
2018-08-06T15:03:36.006Z,44.90
2018-08-06T15:08:32.296Z,44.50
2018-08-06T15:11:00.645Z,43.90
2018-08-06T15:13:28.904Z,44.00
2018-08-06T15:15:57.172Z,43.60
2018-08-06T15:18:25.508Z,43.80
2018-08-06T15:20:53.930Z,44.00
2018-08-06T15:23:22.196Z,44.20
2018-08-06T15:25:50.510Z,44.00
2018-08-06T15:28:18.730Z,44.10
2018-08-06T15:30:47.012Z,43.50
2018-08-06T15:33:15.306Z,43.90
2018-08-06T15:35:43.599Z,43.30
2018-08-06T15:38:11.898Z,43.80
2018-08-06T15:40:40.193Z,43.20
2018-08-06T15:43:08.474Z,42.80
2018-08-06T15:45:36.761Z,42.90
2018-08-06T15:48:05.046Z,42.70
2018-08-06T15:50:33.328Z,42.70
2018-08-06T15:53:01.618Z,42.20
2018-08-06T15:55:29.892Z,42.40
2018-08-06T15:57:58.182Z,42.00
2018-08-06T16:00:26.455Z,40.90
2018-08-06T16:02:54.744Z,40.50
2018-08-06T16:05:23.107Z,39.60
2018-08-06T16:07:51.452Z,39.50
2018-08-06T16:10:19.770Z,38.70
2018-08-06T16:15:16.558Z,38.20
2018-08-06T16:17:45.184Z,37.50
2018-08-06T16:20:14.637Z,37.70
2018-08-06T16:22:42.948Z,38.30
2018-08-06T16:25:11.876Z,38.40
2018-08-06T16:27:40.195Z,38.70
2018-08-06T16:30:13.562Z,37.90
2018-08-06T16:32:42.057Z,38.60
2018-08-06T16:35:10.350Z,38.20
2018-08-06T16:37:38.686Z,38.70
2018-08-06T16:40:07.904Z,38.80
2018-08-06T16:42:36.203Z,39.40
2018-08-06T16:45:05.407Z,38.70
2018-08-06T16:47:33.702Z,38.80
2018-08-06T16:50:02.043Z,39.00
2018-08-06T16:52:30.379Z,38.80
2018-08-06T16:54:58.673Z,38.40
2018-08-06T16:59:55.096Z,37.70
2018-08-06T17:02:23.460Z,38.00
2018-08-06T17:04:51.776Z,37.60
2018-08-06T17:09:48.093Z,36.80
2018-08-06T17:12:16.408Z,36.80
2018-08-06T17:14:44.780Z,36.10
2018-08-06T17:19:41.211Z,34.30
2018-08-06T17:22:09.546Z,34.40
2018-08-06T17:24:37.824Z,34.40
2018-08-06T17:27:06.114Z,35.00
2018-08-06T17:29:34.427Z,35.70
2018-08-06T17:32:02.698Z,35.40
2018-08-06T17:34:30.991Z,35.10
2018-08-06T17:39:27.312Z,34.20
2018-08-06T17:41:55.614Z,34.90
2018-08-06T17:44:23.893Z,34.70
2018-08-06T17:49:20.157Z,35.70
2018-08-06T17:51:48.468Z,36.00
2018-08-06T17:54:16.744Z,36.60
2018-08-06T17:56:45.040Z,36.90
2018-08-06T17:59:13.325Z,36.90
2018-08-06T18:01:41.636Z,37.40
2018-08-06T18:04:09.966Z,38.30
2018-08-06T18:06:38.248Z,38.70
2018-08-06T18:09:09.272Z,39.90
2018-08-06T18:11:37.812Z,39.90
2018-08-06T18:14:06.149Z,40.40
2018-08-06T18:16:34.444Z,40.80
2018-08-06T18:19:02.744Z,41.70
2018-08-06T18:21:31.006Z,42.00
2018-08-06T18:26:27.321Z,42.80
2018-08-06T18:28:55.637Z,44.20
2018-08-06T18:33:52.008Z,44.80
2018-08-06T18:36:20.349Z,45.00
2018-08-06T18:41:16.696Z,45.40
2018-08-06T18:43:45.035Z,45.10
2018-08-06T18:46:13.336Z,46.40
2018-08-06T18:48:41.763Z,46.90
2018-08-06T18:51:10.085Z,45.70
2018-08-06T18:53:38.393Z,45.40
2018-08-06T18:58:34.773Z,47.20
2018-08-06T19:01:03.329Z,47.80
2018-08-06T19:03:32.787Z,48.80
2018-08-06T19:06:01.233Z,48.00
2018-08-06T19:08:29.756Z,47.40
2018-08-06T19:10:58.161Z,46.90
2018-08-06T19:13:31.867Z,47.40
2018-08-06T19:18:33.854Z,49.80
2018-08-06T19:23:30.305Z,48.60
2018-08-06T19:28:26.906Z,50.30
2018-08-06T19:31:00.849Z,49.70
2018-08-06T19:33:29.296Z,49.50
2018-08-06T19:35:57.769Z,50.30
2018-08-06T19:38:26.263Z,49.80
2018-08-06T19:40:54.776Z,51.40
2018-08-06T19:43:30.309Z,50.20
2018-08-06T19:45:58.608Z,49.90
2018-08-06T19:48:26.913Z,50.20
2018-08-06T19:50:55.224Z,52.40
2018-08-06T19:53:23.544Z,51.80
2018-08-06T19:58:25.281Z,53.20
2018-08-06T20:00:53.606Z,53.20
2018-08-06T20:05:49.912Z,52.60
2018-08-06T20:08:18.236Z,52.90
2018-08-06T20:10:46.570Z,52.60
2018-08-06T20:13:14.872Z,52.50
2018-08-06T20:18:11.173Z,55.80
2018-08-06T20:20:39.486Z,55.20
2018-08-06T20:23:07.805Z,54.10
2018-08-06T20:25:36.108Z,54.20
2018-08-06T20:28:04.430Z,54.80
2018-08-06T20:35:28.823Z,57.00
2018-08-06T20:37:57.077Z,58.30
2018-08-06T20:40:25.358Z,58.40
2018-08-06T20:42:53.634Z,57.20
2018-08-06T20:45:22.307Z,56.40
2018-08-06T20:47:50.610Z,56.70
2018-08-06T20:50:20.607Z,57.70
2018-08-06T20:52:49.985Z,57.30
2018-08-06T20:55:18.433Z,59.30
2018-08-06T20:57:47.215Z,59.90
2018-08-06T21:00:17.924Z,60.50
2018-08-06T21:02:47.330Z,60.20
2018-08-06T21:05:15.678Z,59.40
2018-08-06T21:07:44.030Z,59.20
2018-08-06T21:10:13.909Z,58.90
2018-08-06T21:12:42.280Z,58.60
2018-08-06T21:15:11.945Z,57.60
2018-08-06T21:17:40.279Z,57.30
2018-08-06T21:20:10.355Z,56.50
2018-08-06T21:22:38.660Z,56.30
2018-08-06T21:25:08.329Z,55.90
2018-08-06T21:27:36.760Z,55.90
2018-08-06T21:30:07.762Z,55.60
2018-08-06T21:32:36.045Z,55.40
2018-08-06T21:35:04.636Z,56.00
2018-08-06T21:37:32.976Z,56.20
2018-08-06T21:40:01.282Z,56.00
2018-08-06T21:42:29.590Z,55.90
2018-08-06T21:44:57.934Z,56.50
2018-08-06T21:47:26.169Z,56.00
2018-08-06T21:52:22.453Z,56.60
2018-08-06T21:54:50.745Z,57.00
2018-08-06T21:57:19.049Z,57.20
2018-08-06T21:59:47.325Z,58.20
2018-08-06T22:02:15.621Z,57.80
2018-08-06T22:07:11.953Z,59.00
2018-08-06T22:09:40.273Z,60.00
2018-08-06T22:12:08.561Z,60.10
2018-08-06T22:14:36.868Z,59.90
2018-08-06T22:17:05.382Z,60.40
2018-08-06T22:22:01.715Z,61.80
2018-08-06T22:24:30.019Z,61.30
2018-08-06T22:29:26.318Z,61.00
2018-08-06T22:31:54.594Z,60.20
2018-08-06T22:34:22.867Z,59.70
2018-08-06T22:36:51.161Z,59.60
2018-08-06T22:39:19.485Z,59.60
2018-08-06T22:41:47.777Z,59.40
2018-08-06T22:44:16.048Z,59.20
2018-08-06T22:46:44.333Z,59.20
2018-08-06T22:49:12.642Z,60.80
2018-08-06T22:51:40.948Z,61.20
2018-08-06T22:56:37.292Z,62.10
2018-08-06T23:01:33.569Z,62.20
2018-08-06T23:04:01.866Z,62.00
2018-08-06T23:06:30.154Z,63.40
2018-08-06T23:08:58.460Z,63.20
2018-08-06T23:11:26.734Z,64.20
2018-08-06T23:13:55.021Z,63.60
2018-08-06T23:18:51.386Z,65.80
2018-08-06T23:21:19.672Z,65.70
2018-08-06T23:23:47.965Z,66.10
2018-08-06T23:26:16.236Z,65.70
2018-08-06T23:28:44.517Z,65.80
2018-08-06T23:31:12.785Z,65.90
2018-08-06T23:33:41.074Z,66.50
2018-08-06T23:36:09.436Z,67.30
2018-08-06T23:38:37.724Z,67.40
2018-08-06T23:41:06.216Z,67.90
2018-08-06T23:43:34.516Z,67.80
2018-08-06T23:46:02.785Z,67.00
2018-08-06T23:48:31.116Z,67.30
2018-08-06T23:50:59.445Z,68.00
2018-08-06T23:53:27.776Z,68.90
2018-08-06T23:58:24.178Z,69.50
